Pagrindinis puslapis
METAR-TAF:

METAR-TAF

Oro uostai :

Florø, Norvegija

platuma: 61-35N, ilguma: 005-02E, Aukštis: 0 m

Dabartinis oras

Ataskaita buvo paskelbta 41 minutes, ne 19:20 UTC
Vėjas 11 kt iš Rytų/Pietryčių
Temperatūra 12°C
Drėgmė 76%
Slėgis 1007 hPa
Matomumas 10 km arba daugiau
Išsisklaidę debesys ne aukštis 4000 ft
Su prošvaistėmis ne aukštis 6500 ft

METAR: ENFL 221920Z 12011KT 9999 SCT040 BKN065 12/08 Q1007

Laikas: 22:01 (20:01 UTC)

Prognozė

Ataskaita buvo paskelbta 3 valandos ir 1 minutes, ne 17:00 UTC
Prognozė galioja nuo 22 metu 18 UTC su 23 metu 03 UTC
Vėjas 9 kt iš Pietų/Pietryčių
Matomumas 10 km arba daugiau
Mažai debesys ne aukštis 1500 ft
Su prošvaistėmis ne aukštis 4000 ft
lietus
Tikimybė 30% :
Laikinai
nuo 22 metu 18 UTC su 22 metu 21 UTC
lietus
Laikinai
nuo 22 metu 21 UTC su 22 metu 24 UTC
Su prošvaistėmis ne aukštis 2000 ft, aukštai iškilę kamuoliniai debesys.
lietus

TAF: ENFL 221700Z 2218/2303 15009KT 9999 -RA FEW015 BKN040 PROB30 TEMPO 2218/2221 RA TEMPO 2221/2224 SHRA BKN020TCU

Orai ataskaitas ir orų prognozės (METAR, TAF).

turimą stotys yra geltonos ir raudonos taškus žemėlapyje.

Perkelti pele per norėdami pamatyti stoties vardą.

Tada spustelėkite, norėdami matyti oro stebėjimo ir prognozės.

Norėdami pakeisti žemėlapį: spustelėkite ant žalios mygtukų su juodo kryžiaus žemyn,; žalią mygtuką su brūkšneliu, jei norite nutolinti; arba žalių rodyklių gretimoms žemėlapius.


METAR-TAF: